sensor_id;sensor_type;location;lat;lon;timestamp;pressure;altitude;pressure_sealevel;temperature;humidity
46379;BME280;32084;42.254;22.744;2023-01-28T00:02:08;94534.50;;;2.74;83.07
46379;BME280;32084;42.254;22.744;2023-01-28T00:04:36;94538.78;;;2.75;83.07
46379;BME280;32084;42.254;22.744;2023-01-28T00:07:02;94540.47;;;2.76;83.79
46379;BME280;32084;42.254;22.744;2023-01-28T00:09:28;94541.53;;;2.64;84.82
46379;BME280;32084;42.254;22.744;2023-01-28T00:11:54;94539.00;;;2.62;85.15
46379;BME280;32084;42.254;22.744;2023-01-28T00:14:20;94544.72;;;2.67;85.33
46379;BME280;32084;42.254;22.744;2023-01-28T00:16:46;94546.41;;;2.68;85.01
46379;BME280;32084;42.254;22.744;2023-01-28T00:19:12;94547.25;;;2.69;84.88
46379;BME280;32084;42.254;22.744;2023-01-28T00:21:38;94552.50;;;2.69;84.84
46379;BME280;32084;42.254;22.744;2023-01-28T00:24:05;94553.50;;;2.68;85.21
46379;BME280;32084;42.254;22.744;2023-01-28T00:26:31;94553.22;;;2.71;84.45
46379;BME280;32084;42.254;22.744;2023-01-28T00:28:59;94554.19;;;2.70;84.46
46379;BME280;32084;42.254;22.744;2023-01-28T00:31:26;94568.56;;;2.77;83.86
46379;BME280;32084;42.254;22.744;2023-01-28T00:33:54;94567.66;;;2.67;84.99
46379;BME280;32084;42.254;22.744;2023-01-28T00:36:23;94566.88;;;2.55;85.24
46379;BME280;32084;42.254;22.744;2023-01-28T00:38:55;94572.97;;;2.56;86.07
46379;BME280;32084;42.254;22.744;2023-01-28T00:41:24;94573.81;;;2.56;86.16
46379;BME280;32084;42.254;22.744;2023-01-28T00:43:51;94585.22;;;2.57;85.92
46379;BME280;32084;42.254;22.744;2023-01-28T00:46:17;94581.59;;;2.58;86.15
46379;BME280;32084;42.254;22.744;2023-01-28T00:48:44;94583.53;;;2.56;85.44
46379;BME280;32084;42.254;22.744;2023-01-28T00:51:11;94578.88;;;2.48;85.20
46379;BME280;32084;42.254;22.744;2023-01-28T00:53:37;94576.94;;;2.50;86.15
46379;BME280;32084;42.254;22.744;2023-01-28T00:56:05;94586.81;;;2.48;85.92
46379;BME280;32084;42.254;22.744;2023-01-28T00:58:31;94591.00;;;2.50;86.44
46379;BME280;32084;42.254;22.744;2023-01-28T01:01:10;94584.25;;;2.58;84.41
46379;BME280;32084;42.254;22.744;2023-01-28T01:03:36;94579.72;;;2.48;85.61
46379;BME280;32084;42.254;22.744;2023-01-28T01:06:03;94580.88;;;2.56;85.53
46379;BME280;32084;42.254;22.744;2023-01-28T01:08:29;94580.66;;;2.59;85.41
46379;BME280;32084;42.254;22.744;2023-01-28T01:11:02;94589.78;;;2.54;85.07
46379;BME280;32084;42.254;22.744;2023-01-28T01:13:29;94585.22;;;2.57;85.32
46379;BME280;32084;42.254;22.744;2023-01-28T01:16:09;94581.72;;;2.56;85.16
46379;BME280;32084;42.254;22.744;2023-01-28T01:18:35;94584.00;;;2.61;84.12
46379;BME280;32084;42.254;22.744;2023-01-28T01:21:02;94577.72;;;2.62;83.80
46379;BME280;32084;42.254;22.744;2023-01-28T01:23:32;94579.66;;;2.60;83.70
46379;BME280;32084;42.254;22.744;2023-01-28T01:25:58;94587.00;;;2.56;83.24
46379;BME280;32084;42.254;22.744;2023-01-28T01:28:24;94580.44;;;2.50;83.10
46379;BME280;32084;42.254;22.744;2023-01-28T01:30:57;94586.88;;;2.58;82.59
46379;BME280;32084;42.254;22.744;2023-01-28T01:33:23;94582.81;;;2.53;82.96
46379;BME280;32084;42.254;22.744;2023-01-28T01:35:52;94585.22;;;2.57;82.41
46379;BME280;32084;42.254;22.744;2023-01-28T01:38:19;94590.94;;;2.62;82.31
46379;BME280;32084;42.254;22.744;2023-01-28T01:40:45;94590.88;;;2.73;81.29
46379;BME280;32084;42.254;22.744;2023-01-28T01:43:15;94583.59;;;2.65;82.40
46379;BME280;32084;42.254;22.744;2023-01-28T01:45:41;94585.16;;;2.68;81.95
46379;BME280;32084;42.254;22.744;2023-01-28T01:48:13;94584.91;;;2.71;81.33
46379;BME280;32084;42.254;22.744;2023-01-28T01:51:03;94588.84;;;2.77;80.33
46379;BME280;32084;42.254;22.744;2023-01-28T01:53:27;94590.56;;;2.66;80.76
46379;BME280;32084;42.254;22.744;2023-01-28T01:55:55;94592.00;;;2.70;80.05
46379;BME280;32084;42.254;22.744;2023-01-28T01:58:23;94596.22;;;2.62;80.59
46379;BME280;32084;42.254;22.744;2023-01-28T02:00:50;94592.03;;;2.59;79.99
46379;BME280;32084;42.254;22.744;2023-01-28T02:03:18;94599.06;;;2.70;80.44
46379;BME280;32084;42.254;22.744;2023-01-28T02:05:47;94596.81;;;2.65;80.40
46379;BME280;32084;42.254;22.744;2023-01-28T02:08:14;94597.47;;;2.79;79.59
46379;BME280;32084;42.254;22.744;2023-01-28T02:13:18;94594.75;;;2.69;79.80
46379;BME280;32084;42.254;22.744;2023-01-28T02:15:45;94597.38;;;2.69;79.71
46379;BME280;32084;42.254;22.744;2023-01-28T02:18:12;94598.28;;;2.58;80.95
46379;BME280;32084;42.254;22.744;2023-01-28T02:28:35;94595.06;;;2.54;79.79
46379;BME280;32084;42.254;22.744;2023-01-28T02:36:17;94600.59;;;2.51;79.42
46379;BME280;32084;42.254;22.744;2023-01-28T02:38:47;94604.75;;;2.54;80.04
46379;BME280;32084;42.254;22.744;2023-01-28T02:41:19;94607.34;;;2.65;79.55
46379;BME280;32084;42.254;22.744;2023-01-28T02:43:46;94606.88;;;2.71;80.17
46379;BME280;32084;42.254;22.744;2023-01-28T02:46:32;94609.38;;;2.73;79.57
46379;BME280;32084;42.254;22.744;2023-01-28T02:59:41;94607.81;;;2.70;80.08
46379;BME280;32084;42.254;22.744;2023-01-28T03:07:15;94613.16;;;2.59;81.23
46379;BME280;32084;42.254;22.744;2023-01-28T03:09:42;94614.50;;;2.53;81.49
46379;BME280;32084;42.254;22.744;2023-01-28T03:12:11;94616.09;;;2.45;82.51
46379;BME280;32084;42.254;22.744;2023-01-28T03:15:05;94621.47;;;2.54;80.26
46379;BME280;32084;42.254;22.744;2023-01-28T03:18:14;94617.47;;;2.60;80.19
46379;BME280;32084;42.254;22.744;2023-01-28T03:23:46;94620.94;;;2.61;80.81
46379;BME280;32084;42.254;22.744;2023-01-28T03:26:34;94626.22;;;2.61;81.19
46379;BME280;32084;42.254;22.744;2023-01-28T03:29:21;94626.78;;;2.43;81.77
46379;BME280;32084;42.254;22.744;2023-01-28T03:32:07;94625.19;;;2.41;82.24
46379;BME280;32084;42.254;22.744;2023-01-28T03:34:53;94628.00;;;2.39;82.50
46379;BME280;32084;42.254;22.744;2023-01-28T03:37:37;94630.63;;;2.39;81.67
46379;BME280;32084;42.254;22.744;2023-01-28T03:40:05;94627.41;;;2.36;82.86
46379;BME280;32084;42.254;22.744;2023-01-28T03:42:32;94628.72;;;2.30;82.57
46379;BME280;32084;42.254;22.744;2023-01-28T03:44:58;94626.78;;;2.32;82.22
46379;BME280;32084;42.254;22.744;2023-01-28T03:47:27;94623.28;;;2.31;82.79
46379;BME280;32084;42.254;22.744;2023-01-28T03:49:54;94624.59;;;2.37;81.87
46379;BME280;32084;42.254;22.744;2023-01-28T03:52:23;94630.03;;;2.36;82.22
46379;BME280;32084;42.254;22.744;2023-01-28T03:54:49;94626.06;;;2.41;82.41
46379;BME280;32084;42.254;22.744;2023-01-28T03:57:19;94626.66;;;2.45;81.95
46379;BME280;32084;42.254;22.744;2023-01-28T03:59:45;94638.88;;;2.34;82.02
46379;BME280;32084;42.254;22.744;2023-01-28T04:02:14;94642.63;;;2.32;83.00
46379;BME280;32084;42.254;22.744;2023-01-28T04:04:40;94634.94;;;2.29;83.28
46379;BME280;32084;42.254;22.744;2023-01-28T04:07:07;94642.03;;;2.28;82.89
46379;BME280;32084;42.254;22.744;2023-01-28T04:09:35;94646.47;;;2.39;82.96
46379;BME280;32084;42.254;22.744;2023-01-28T04:12:01;94651.84;;;2.38;82.71
46379;BME280;32084;42.254;22.744;2023-01-28T04:14:28;94649.31;;;2.36;82.93
46379;BME280;32084;42.254;22.744;2023-01-28T04:16:54;94652.91;;;2.35;82.25
46379;BME280;32084;42.254;22.744;2023-01-28T04:19:20;94653.28;;;2.30;82.36
46379;BME280;32084;42.254;22.744;2023-01-28T04:21:46;94653.19;;;2.32;82.81
46379;BME280;32084;42.254;22.744;2023-01-28T04:24:14;94661.22;;;2.30;83.06
46379;BME280;32084;42.254;22.744;2023-01-28T04:26:40;94659.28;;;2.32;82.11
46379;BME280;32084;42.254;22.744;2023-01-28T04:29:06;94664.78;;;2.29;82.33
46379;BME280;32084;42.254;22.744;2023-01-28T04:31:32;94669.75;;;2.23;82.71
46379;BME280;32084;42.254;22.744;2023-01-28T04:33:59;94664.94;;;2.28;83.25
46379;BME280;32084;42.254;22.744;2023-01-28T04:36:25;94669.38;;;2.16;82.75
46379;BME280;32084;42.254;22.744;2023-01-28T04:38:51;94668.91;;;2.22;83.51
46379;BME280;32084;42.254;22.744;2023-01-28T04:41:18;94669.75;;;2.23;83.41
46379;BME280;32084;42.254;22.744;2023-01-28T04:43:44;94673.34;;;2.10;83.60
46379;BME280;32084;42.254;22.744;2023-01-28T04:46:10;94682.00;;;2.01;84.83
46379;BME280;32084;42.254;22.744;2023-01-28T04:48:36;94677.44;;;2.03;84.67
46379;BME280;32084;42.254;22.744;2023-01-28T04:51:03;94679.69;;;2.08;83.43
46379;BME280;32084;42.254;22.744;2023-01-28T04:53:29;94686.41;;;2.12;83.82
46379;BME280;32084;42.254;22.744;2023-01-28T04:55:56;94697.81;;;2.01;84.48
46379;BME280;32084;42.254;22.744;2023-01-28T04:58:22;94692.06;;;2.07;83.73
46379;BME280;32084;42.254;22.744;2023-01-28T05:00:55;94695.91;;;2.14;83.57
46379;BME280;32084;42.254;22.744;2023-01-28T05:03:21;94701.41;;;2.11;84.48
46379;BME280;32084;42.254;22.744;2023-01-28T05:05:48;94699.13;;;2.07;84.25
46379;BME280;32084;42.254;22.744;2023-01-28T05:08:14;94706.31;;;2.05;84.15
46379;BME280;32084;42.254;22.744;2023-01-28T05:10:40;94701.16;;;2.03;83.71
46379;BME280;32084;42.254;22.744;2023-01-28T05:13:06;94709.09;;;2.03;83.11
46379;BME280;32084;42.254;22.744;2023-01-28T05:15:32;94707.03;;;1.95;83.94
46379;BME280;32084;42.254;22.744;2023-01-28T05:17:58;94708.94;;;2.05;82.95
46379;BME280;32084;42.254;22.744;2023-01-28T05:20:24;94708.94;;;2.05;82.79
46379;BME280;32084;42.254;22.744;2023-01-28T05:22:51;94706.91;;;2.08;82.33
46379;BME280;32084;42.254;22.744;2023-01-28T05:25:17;94710.41;;;2.09;82.56
46379;BME280;32084;42.254;22.744;2023-01-28T05:27:47;94713.16;;;2.07;83.10
46379;BME280;32084;42.254;22.744;2023-01-28T05:30:14;94711.47;;;2.06;83.22
46379;BME280;32084;42.254;22.744;2023-01-28T05:32:40;94715.31;;;2.02;83.50
46379;BME280;32084;42.254;22.744;2023-01-28T05:35:06;94717.59;;;1.95;83.84
46379;BME280;32084;42.254;22.744;2023-01-28T05:37:33;94722.28;;;2.03;83.75
46379;BME280;32084;42.254;22.744;2023-01-28T05:39:59;94720.56;;;2.13;83.42
46379;BME280;32084;42.254;22.744;2023-01-28T05:42:25;94726.44;;;2.06;84.08
46379;BME280;32084;42.254;22.744;2023-01-28T05:44:51;94730.63;;;2.08;82.87
46379;BME280;32084;42.254;22.744;2023-01-28T05:47:17;94725.03;;;2.02;83.15
46379;BME280;32084;42.254;22.744;2023-01-28T05:49:43;94733.75;;;2.13;83.09
46379;BME280;32084;42.254;22.744;2023-01-28T05:52:09;94733.41;;;2.07;83.17
46379;BME280;32084;42.254;22.744;2023-01-28T05:54:35;94739.25;;;2.10;82.97
46379;BME280;32084;42.254;22.744;2023-01-28T05:57:01;94735.91;;;2.20;82.31
46379;BME280;32084;42.254;22.744;2023-01-28T05:59:27;94742.28;;;2.17;82.69
46379;BME280;32084;42.254;22.744;2023-01-28T06:01:53;94738.44;;;2.21;82.50
46379;BME280;32084;42.254;22.744;2023-01-28T06:04:19;94748.16;;;2.32;81.19
46379;BME280;32084;42.254;22.744;2023-01-28T06:06:46;94749.22;;;2.29;82.01
46379;BME280;32084;42.254;22.744;2023-01-28T06:09:12;94754.63;;;2.28;81.51
46379;BME280;32084;42.254;22.744;2023-01-28T06:11:38;94760.38;;;2.22;82.25
46379;BME280;32084;42.254;22.744;2023-01-28T06:14:04;94766.84;;;2.18;82.58
46379;BME280;32084;42.254;22.744;2023-01-28T06:16:30;94766.63;;;2.21;82.21
46379;BME280;32084;42.254;22.744;2023-01-28T06:18:56;94766.25;;;2.25;82.04
46379;BME280;32084;42.254;22.744;2023-01-28T06:21:22;94775.75;;;2.39;80.72
46379;BME280;32084;42.254;22.744;2023-01-28T06:23:48;94784.00;;;2.34;79.78
46379;BME280;32084;42.254;22.744;2023-01-28T06:26:15;94782.34;;;2.22;80.48
46379;BME280;32084;42.254;22.744;2023-01-28T06:28:41;94792.50;;;2.27;80.45
46379;BME280;32084;42.254;22.744;2023-01-28T06:31:07;94789.75;;;2.28;80.10
46379;BME280;32084;42.254;22.744;2023-01-28T06:33:33;94795.03;;;2.28;79.76
46379;BME280;32084;42.254;22.744;2023-01-28T06:36:01;94794.31;;;2.38;79.26
46379;BME280;32084;42.254;22.744;2023-01-28T06:38:27;94797.69;;;2.40;78.96
46379;BME280;32084;42.254;22.744;2023-01-28T06:40:53;94799.94;;;2.44;78.49
46379;BME280;32084;42.254;22.744;2023-01-28T06:43:21;94802.84;;;2.41;78.60
46379;BME280;32084;42.254;22.744;2023-01-28T06:45:52;94805.09;;;2.46;78.75
46379;BME280;32084;42.254;22.744;2023-01-28T06:48:19;94805.22;;;2.44;78.59
46379;BME280;32084;42.254;22.744;2023-01-28T06:50:46;94816.97;;;2.29;79.15
46379;BME280;32084;42.254;22.744;2023-01-28T06:53:13;94816.88;;;2.42;79.16
46379;BME280;32084;42.254;22.744;2023-01-28T06:55:39;94821.31;;;2.41;79.10
46379;BME280;32084;42.254;22.744;2023-01-28T06:58:05;94816.50;;;2.46;78.90
46379;BME280;32084;42.254;22.744;2023-01-28T07:00:31;94824.41;;;2.58;77.94
46379;BME280;32084;42.254;22.744;2023-01-28T07:02:57;94831.59;;;2.44;77.73
46379;BME280;32084;42.254;22.744;2023-01-28T07:05:23;94835.94;;;2.45;78.49
46379;BME280;32084;42.254;22.744;2023-01-28T07:07:50;94836.16;;;2.53;77.87
46379;BME280;32084;42.254;22.744;2023-01-28T07:10:16;94839.31;;;2.47;77.64
46379;BME280;32084;42.254;22.744;2023-01-28T07:12:42;94841.34;;;2.44;78.42
46379;BME280;32084;42.254;22.744;2023-01-28T07:15:08;94848.75;;;2.39;78.20
46379;BME280;32084;42.254;22.744;2023-01-28T07:17:40;94853.31;;;2.48;77.42
46379;BME280;32084;42.254;22.744;2023-01-28T07:20:07;94853.91;;;2.40;77.48
46379;BME280;32084;42.254;22.744;2023-01-28T07:22:33;94860.75;;;2.43;76.05
46379;BME280;32084;42.254;22.744;2023-01-28T07:25:00;94852.00;;;2.53;75.77
46379;BME280;32084;42.254;22.744;2023-01-28T07:27:26;94857.28;;;2.65;76.15
46379;BME280;32084;42.254;22.744;2023-01-28T07:29:52;94862.22;;;2.58;75.93
46379;BME280;32084;42.254;22.744;2023-01-28T07:32:18;94860.91;;;2.52;76.12
46379;BME280;32084;42.254;22.744;2023-01-28T07:34:44;94865.44;;;2.62;76.00
46379;BME280;32084;42.254;22.744;2023-01-28T07:37:10;94872.78;;;2.69;74.80
46379;BME280;32084;42.254;22.744;2023-01-28T07:39:36;94873.72;;;2.68;76.02
46379;BME280;32084;42.254;22.744;2023-01-28T07:42:03;94879.72;;;2.70;76.66
46379;BME280;32084;42.254;22.744;2023-01-28T07:44:29;94881.44;;;2.71;75.96
46379;BME280;32084;42.254;22.744;2023-01-28T07:46:55;94879.97;;;2.67;75.57
46379;BME280;32084;42.254;22.744;2023-01-28T07:49:21;94886.22;;;2.78;75.65
46379;BME280;32084;42.254;22.744;2023-01-28T07:51:47;94887.66;;;2.82;75.06
46379;BME280;32084;42.254;22.744;2023-01-28T07:54:15;94884.63;;;2.86;74.93
46379;BME280;32084;42.254;22.744;2023-01-28T07:56:41;94889.19;;;2.84;74.78
46379;BME280;32084;42.254;22.744;2023-01-28T07:59:07;94890.28;;;2.93;74.09
46379;BME280;32084;42.254;22.744;2023-01-28T08:01:33;94890.91;;;2.85;71.65
46379;BME280;32084;42.254;22.744;2023-01-28T08:03:59;94892.44;;;2.88;73.18
46379;BME280;32084;42.254;22.744;2023-01-28T08:06:27;94895.94;;;2.88;74.66
46379;BME280;32084;42.254;22.744;2023-01-28T08:08:53;94899.03;;;2.93;73.85
46379;BME280;32084;42.254;22.744;2023-01-28T08:11:19;94899.28;;;3.13;72.12
46379;BME280;32084;42.254;22.744;2023-01-28T08:13:45;94900.94;;;3.14;71.38
46379;BME280;32084;42.254;22.744;2023-01-28T08:16:13;94904.53;;;3.24;72.01
46379;BME280;32084;42.254;22.744;2023-01-28T08:18:39;94901.41;;;3.30;72.67
46379;BME280;32084;42.254;22.744;2023-01-28T08:21:05;94909.19;;;3.43;72.61
46379;BME280;32084;42.254;22.744;2023-01-28T08:23:31;94905.69;;;3.54;70.66
46379;BME280;32084;42.254;22.744;2023-01-28T08:25:59;94908.44;;;3.52;70.82
46379;BME280;32084;42.254;22.744;2023-01-28T08:28:25;94903.16;;;3.52;70.36
46379;BME280;32084;42.254;22.744;2023-01-28T08:30:51;94905.09;;;3.50;70.47
46379;BME280;32084;42.254;22.744;2023-01-28T08:33:18;94904.09;;;3.63;70.08
46379;BME280;32084;42.254;22.744;2023-01-28T08:35:44;94902.88;;;3.67;71.84
46379;BME280;32084;42.254;22.744;2023-01-28T08:38:11;94904.25;;;3.50;71.33
46379;BME280;32084;42.254;22.744;2023-01-28T08:40:37;94905.19;;;3.49;71.21
46379;BME280;32084;42.254;22.744;2023-01-28T08:43:04;94905.69;;;3.54;70.58
46379;BME280;32084;42.254;22.744;2023-01-28T08:45:30;94911.06;;;3.64;70.58
46379;BME280;32084;42.254;22.744;2023-01-28T08:47:57;94913.47;;;3.67;70.95
46379;BME280;32084;42.254;22.744;2023-01-28T08:50:24;94917.38;;;3.84;70.35
46379;BME280;32084;42.254;22.744;2023-01-28T08:52:57;94925.78;;;3.89;69.94
46379;BME280;32084;42.254;22.744;2023-01-28T08:55:24;94915.91;;;3.91;71.30
46379;BME280;32084;42.254;22.744;2023-01-28T08:57:50;94924.56;;;3.93;71.54
46379;BME280;32084;42.254;22.744;2023-01-28T09:00:16;94917.97;;;3.87;72.72
46379;BME280;32084;42.254;22.744;2023-01-28T09:02:42;94916.78;;;3.80;70.99
46379;BME280;32084;42.254;22.744;2023-01-28T09:05:08;94914.22;;;3.90;71.55
46379;BME280;32084;42.254;22.744;2023-01-28T09:07:36;94911.34;;;3.93;72.42
46379;BME280;32084;42.254;22.744;2023-01-28T09:10:03;94912.22;;;3.82;72.21
46379;BME280;32084;42.254;22.744;2023-01-28T09:12:29;94913.66;;;3.75;71.19
46379;BME280;32084;42.254;22.744;2023-01-28T09:14:56;94911.72;;;3.77;71.90
46379;BME280;32084;42.254;22.744;2023-01-28T09:17:22;94910.00;;;3.99;71.61
46379;BME280;32084;42.254;22.744;2023-01-28T09:19:48;94915.91;;;3.91;71.16
46379;BME280;32084;42.254;22.744;2023-01-28T09:22:15;94915.94;;;3.80;71.27
46379;BME280;32084;42.254;22.744;2023-01-28T09:24:41;94912.25;;;3.71;72.08
46379;BME280;32084;42.254;22.744;2023-01-28T09:27:07;94911.69;;;3.88;71.69
46379;BME280;32084;42.254;22.744;2023-01-28T09:29:33;94910.97;;;3.86;71.79
46379;BME280;32084;42.254;22.744;2023-01-28T09:32:00;94910.16;;;3.86;72.66
46379;BME280;32084;42.254;22.744;2023-01-28T09:34:26;94909.06;;;4.09;71.39
46379;BME280;32084;42.254;22.744;2023-01-28T09:36:52;94909.88;;;4.21;71.24
46379;BME280;32084;42.254;22.744;2023-01-28T09:39:18;94914.13;;;4.34;71.12
46379;BME280;32084;42.254;22.744;2023-01-28T09:42:04;94905.03;;;4.47;69.34
46379;BME280;32084;42.254;22.744;2023-01-28T09:47:04;94908.84;;;4.55;70.97
46379;BME280;32084;42.254;22.744;2023-01-28T09:49:36;94902.63;;;4.65;68.32
46379;BME280;32084;42.254;22.744;2023-01-28T09:52:07;94903.88;;;4.92;67.15
46379;BME280;32084;42.254;22.744;2023-01-28T09:54:39;94906.88;;;5.08;67.48
46379;BME280;32084;42.254;22.744;2023-01-28T09:57:12;94899.47;;;5.12;66.80
46379;BME280;32084;42.254;22.744;2023-01-28T09:59:41;94898.31;;;5.36;67.10
46379;BME280;32084;42.254;22.744;2023-01-28T10:07:39;94897.22;;;5.48;64.76
46379;BME280;32084;42.254;22.744;2023-01-28T10:10:09;94896.69;;;5.54;65.09
46379;BME280;32084;42.254;22.744;2023-01-28T10:12:47;94901.88;;;5.65;66.86
46379;BME280;32084;42.254;22.744;2023-01-28T10:15:28;94899.63;;;5.71;64.46
46379;BME280;32084;42.254;22.744;2023-01-28T10:18:02;94886.72;;;5.37;64.73
46379;BME280;32084;42.254;22.744;2023-01-28T10:20:31;94886.19;;;5.33;64.98
46379;BME280;32084;42.254;22.744;2023-01-28T10:23:05;94891.19;;;5.36;64.74
46379;BME280;32084;42.254;22.744;2023-01-28T10:25:36;94890.94;;;5.49;65.73
46379;BME280;32084;42.254;22.744;2023-01-28T10:28:04;94888.19;;;5.60;65.07
46379;BME280;32084;42.254;22.744;2023-01-28T10:30:39;94892.66;;;5.70;64.95
46379;BME280;32084;42.254;22.744;2023-01-28T10:33:15;94881.63;;;5.55;63.37
46379;BME280;32084;42.254;22.744;2023-01-28T10:35:42;94879.50;;;5.48;64.33
46379;BME280;32084;42.254;22.744;2023-01-28T10:38:16;94879.81;;;5.65;65.06
46379;BME280;32084;42.254;22.744;2023-01-28T10:40:44;94883.88;;;5.79;63.25
46379;BME280;32084;42.254;22.744;2023-01-28T10:43:16;94881.22;;;5.79;64.56
46379;BME280;32084;42.254;22.744;2023-01-28T10:48:22;94875.22;;;5.86;63.06
46379;BME280;32084;42.254;22.744;2023-01-28T10:50:53;94872.84;;;5.93;64.06
46379;BME280;32084;42.254;22.744;2023-01-28T10:53:37;94869.94;;;5.96;62.55
46379;BME280;32084;42.254;22.744;2023-01-28T10:56:04;94868.25;;;6.05;63.13
46379;BME280;32084;42.254;22.744;2023-01-28T10:58:33;94866.31;;;6.17;61.74
46379;BME280;32084;42.254;22.744;2023-01-28T11:01:00;94868.66;;;6.30;62.02
46379;BME280;32084;42.254;22.744;2023-01-28T11:03:27;94861.97;;;6.16;61.38
46379;BME280;32084;42.254;22.744;2023-01-28T11:05:56;94871.88;;;5.94;62.67
46379;BME280;32084;42.254;22.744;2023-01-28T11:08:23;94863.38;;;6.00;62.96
46379;BME280;32084;42.254;22.744;2023-01-28T11:10:50;94860.84;;;5.89;61.84
46379;BME280;32084;42.254;22.744;2023-01-28T11:15:50;94848.59;;;5.98;62.80
46379;BME280;32084;42.254;22.744;2023-01-28T11:18:23;94856.25;;;6.01;63.28
46379;BME280;32084;42.254;22.744;2023-01-28T11:20:51;94851.06;;;5.99;63.39
46379;BME280;32084;42.254;22.744;2023-01-28T11:23:23;94849.69;;;5.95;63.15
46379;BME280;32084;42.254;22.744;2023-01-28T11:25:57;94846.75;;;6.08;62.12
46379;BME280;32084;42.254;22.744;2023-01-28T11:28:24;94851.09;;;6.09;62.84
46379;BME280;32084;42.254;22.744;2023-01-28T11:30:51;94847.28;;;6.31;60.61
46379;BME280;32084;42.254;22.744;2023-01-28T11:33:20;94842.94;;;6.40;61.61
46379;BME280;32084;42.254;22.744;2023-01-28T11:38:55;94850.44;;;6.54;61.47
46379;BME280;32084;42.254;22.744;2023-01-28T11:41:33;94847.22;;;6.60;61.58
46379;BME280;32084;42.254;22.744;2023-01-28T11:44:00;94847.94;;;6.53;60.20
46379;BME280;32084;42.254;22.744;2023-01-28T12:15:38;94837.28;;;6.62;61.63
46379;BME280;32084;42.254;22.744;2023-01-28T12:20:52;94840.06;;;6.71;61.27
46379;BME280;32084;42.254;22.744;2023-01-28T12:26:30;94840.56;;;6.84;60.83
46379;BME280;32084;42.254;22.744;2023-01-28T12:34:22;94859.72;;;6.31;62.55
46379;BME280;32084;42.254;22.744;2023-01-28T12:37:00;94858.91;;;6.01;61.35
46379;BME280;32084;42.254;22.744;2023-01-28T12:42:06;94853.72;;;5.99;62.54
46379;BME280;32084;42.254;22.744;2023-01-28T12:44:37;94863.75;;;5.76;63.88
46379;BME280;32084;42.254;22.744;2023-01-28T12:47:13;94870.31;;;5.82;64.43
46379;BME280;32084;42.254;22.744;2023-01-28T12:49:47;94872.53;;;5.67;64.60
46379;BME280;32084;42.254;22.744;2023-01-28T12:54:48;94869.34;;;5.63;65.62
46379;BME280;32084;42.254;22.744;2023-01-28T12:57:20;94873.66;;;5.74;65.15
46379;BME280;32084;42.254;22.744;2023-01-28T12:59:49;94867.53;;;5.93;64.02
46379;BME280;32084;42.254;22.744;2023-01-28T13:02:20;94862.56;;;6.00;63.03
46379;BME280;32084;42.254;22.744;2023-01-28T13:04:53;94870.06;;;5.85;62.70
46379;BME280;32084;42.254;22.744;2023-01-28T13:07:56;94865.34;;;5.98;64.89
46379;BME280;32084;42.254;22.744;2023-01-28T13:10:33;94870.34;;;6.31;62.82
46379;BME280;32084;42.254;22.744;2023-01-28T13:13:01;94876.78;;;6.28;60.78
46379;BME280;32084;42.254;22.744;2023-01-28T13:15:28;94877.06;;;6.15;61.51
46379;BME280;32084;42.254;22.744;2023-01-28T13:17:59;94874.28;;;6.17;61.84
46379;BME280;32084;42.254;22.744;2023-01-28T13:20:28;94876.78;;;6.38;60.54
46379;BME280;32084;42.254;22.744;2023-01-28T13:22:59;94877.88;;;6.45;61.81
46379;BME280;32084;42.254;22.744;2023-01-28T13:25:25;94885.16;;;6.33;61.00
46379;BME280;32084;42.254;22.744;2023-01-28T13:27:57;94879.28;;;6.30;61.15
46379;BME280;32084;42.254;22.744;2023-01-28T13:30:46;94891.75;;;6.19;61.49
46379;BME280;32084;42.254;22.744;2023-01-28T13:36:23;94884.28;;;6.42;61.62
46379;BME280;32084;42.254;22.744;2023-01-28T13:41:38;94892.16;;;6.34;61.82
46379;BME280;32084;42.254;22.744;2023-01-28T13:46:50;94893.53;;;5.99;61.82
46379;BME280;32084;42.254;22.744;2023-01-28T13:49:33;94901.50;;;5.99;63.67
46379;BME280;32084;42.254;22.744;2023-01-28T13:52:06;94906.97;;;5.98;62.38
46379;BME280;32084;42.254;22.744;2023-01-28T13:54:47;94903.19;;;6.20;61.80
46379;BME280;32084;42.254;22.744;2023-01-28T13:57:32;94905.59;;;6.03;62.12
46379;BME280;32084;42.254;22.744;2023-01-28T14:12:38;94925.69;;;5.96;63.09
46379;BME280;32084;42.254;22.744;2023-01-28T14:17:50;94925.06;;;5.73;63.58
46379;BME280;32084;42.254;22.744;2023-01-28T14:20:20;94926.00;;;5.62;63.08
46379;BME280;32084;42.254;22.744;2023-01-28T14:22:47;94921.41;;;5.55;63.70
46379;BME280;32084;42.254;22.744;2023-01-28T14:27:55;94939.41;;;5.71;63.95
46379;BME280;32084;42.254;22.744;2023-01-28T14:30:40;94936.50;;;5.74;63.96
46379;BME280;32084;42.254;22.744;2023-01-28T14:33:09;94933.72;;;5.65;64.61
46379;BME280;32084;42.254;22.744;2023-01-28T14:35:37;94942.06;;;5.61;64.78
46379;BME280;32084;42.254;22.744;2023-01-28T14:38:06;94941.47;;;5.47;64.49
46379;BME280;32084;42.254;22.744;2023-01-28T14:40:32;94945.13;;;5.56;65.67
46379;BME280;32084;42.254;22.744;2023-01-28T14:43:01;94943.53;;;5.44;66.40
46379;BME280;32084;42.254;22.744;2023-01-28T14:45:37;94946.16;;;5.34;66.33
46379;BME280;32084;42.254;22.744;2023-01-28T14:58:24;94963.34;;;5.40;67.94
46379;BME280;32084;42.254;22.744;2023-01-28T15:00:53;94964.16;;;5.31;67.68
46379;BME280;32084;42.254;22.744;2023-01-28T15:03:20;94967.63;;;5.31;67.43
46379;BME280;32084;42.254;22.744;2023-01-28T15:05:46;94975.75;;;5.30;67.98
46379;BME280;32084;42.254;22.744;2023-01-28T15:08:21;94978.97;;;5.33;67.18
46379;BME280;32084;42.254;22.744;2023-01-28T15:10:48;94979.06;;;5.22;69.78
46379;BME280;32084;42.254;22.744;2023-01-28T15:13:19;94978.97;;;5.12;68.71
46379;BME280;32084;42.254;22.744;2023-01-28T15:15:48;94980.22;;;5.08;68.37
46379;BME280;32084;42.254;22.744;2023-01-28T15:18:18;94983.34;;;5.13;69.11
46379;BME280;32084;42.254;22.744;2023-01-28T15:20:47;94978.94;;;5.02;70.14
46379;BME280;32084;42.254;22.744;2023-01-28T15:23:14;94984.72;;;4.86;68.42